createdAt,value
2018-02-08T00:00:39.000Z,27.4
2018-02-08T00:02:39.000Z,27.4
2018-02-08T00:03:39.000Z,27.4
2018-02-08T00:05:39.000Z,27.4
2018-02-08T00:07:39.000Z,27.3
2018-02-08T00:08:39.000Z,27.3
2018-02-08T00:09:39.000Z,27.4
2018-02-08T00:10:39.000Z,27.4
2018-02-08T00:11:39.000Z,27.4
2018-02-08T00:13:39.000Z,27.5
2018-02-08T00:14:39.000Z,27.4
2018-02-08T00:16:39.000Z,27.4
2018-02-08T00:17:39.000Z,27.4
2018-02-08T00:18:39.000Z,27.5
2018-02-08T00:20:39.000Z,27.5
2018-02-08T00:21:39.000Z,27.5
2018-02-08T00:22:39.000Z,27.5
2018-02-08T00:24:39.000Z,27.5
2018-02-08T00:26:39.000Z,27.5
2018-02-08T00:27:39.000Z,27.4
2018-02-08T00:29:39.000Z,27.4
2018-02-08T00:30:39.000Z,27.4
2018-02-08T00:31:39.000Z,27.4
2018-02-08T00:33:39.000Z,27.4
2018-02-08T00:35:39.000Z,27.3
2018-02-08T00:37:39.000Z,27.2
2018-02-08T00:39:39.000Z,27.1
2018-02-08T00:41:39.000Z,27.1
2018-02-08T00:42:39.000Z,27.1
2018-02-08T00:44:39.000Z,27.1
2018-02-08T00:45:39.000Z,27.2
2018-02-08T00:47:39.000Z,27.2
2018-02-08T00:48:39.000Z,27.2
2018-02-08T00:50:39.000Z,27.3
2018-02-08T00:52:39.000Z,27.2
2018-02-08T00:53:39.000Z,27.2
2018-02-08T00:54:39.000Z,27.2
2018-02-08T00:55:39.000Z,27.3
2018-02-08T00:57:39.000Z,27.3
2018-02-08T00:58:39.000Z,27.3
2018-02-08T01:00:39.000Z,27.4
2018-02-08T01:01:39.000Z,27.4
2018-02-08T01:03:39.000Z,27.3
2018-02-08T01:04:39.000Z,27.3
2018-02-08T01:05:39.000Z,27.4
2018-02-08T01:07:39.000Z,27.4
2018-02-08T01:09:39.000Z,27.3
2018-02-08T01:11:39.000Z,27.2
2018-02-08T01:13:39.000Z,27.1
2018-02-08T01:15:39.000Z,27.1
2018-02-08T01:17:39.000Z,27.1
2018-02-08T01:18:39.000Z,27.1
2018-02-08T01:20:39.000Z,27.1
2018-02-08T01:21:39.000Z,27.1
2018-02-08T01:22:39.000Z,27.2
2018-02-08T01:23:39.000Z,27.2
2018-02-08T01:24:39.000Z,27.3
2018-02-08T01:26:39.000Z,27.3
2018-02-08T01:27:39.000Z,27.3
2018-02-08T01:28:39.000Z,27.4
2018-02-08T01:29:39.000Z,27.4
2018-02-08T01:31:39.000Z,27.4
2018-02-08T01:32:39.000Z,27.3
2018-02-08T01:34:39.000Z,27.3
2018-02-08T01:36:39.000Z,27.1
2018-02-08T01:37:39.000Z,27.1
2018-02-08T01:38:39.000Z,27.1
2018-02-08T01:40:39.000Z,27.1
2018-02-08T01:41:39.000Z,27.2
2018-02-08T01:43:39.000Z,27.2
2018-02-08T01:44:39.000Z,27.2
2018-02-08T01:45:39.000Z,27.3
2018-02-08T01:47:39.000Z,27.2
2018-02-08T01:49:39.000Z,27.1
2018-02-08T01:50:39.000Z,27.1
2018-02-08T01:51:39.000Z,27.1
2018-02-08T01:52:39.000Z,27.1
2018-02-08T01:53:39.000Z,27.2
2018-02-08T01:55:39.000Z,27.2
2018-02-08T01:57:39.000Z,27.1
2018-02-08T01:59:39.000Z,27
2018-02-08T02:00:39.000Z,27
2018-02-08T02:02:39.000Z,27
2018-02-08T02:04:39.000Z,27
2018-02-08T02:06:39.000Z,27
2018-02-08T02:07:39.000Z,27
2018-02-08T02:09:39.000Z,27
2018-02-08T02:10:39.000Z,27
2018-02-08T02:11:39.000Z,27
2018-02-08T02:12:39.000Z,27.1
2018-02-08T02:13:39.000Z,27.2
2018-02-08T02:15:39.000Z,27.2
2018-02-08T02:16:39.000Z,27.1
2018-02-08T02:18:39.000Z,27.1
2018-02-08T02:19:39.000Z,27.1
2018-02-08T02:21:39.000Z,27.1
2018-02-08T02:23:39.000Z,27
2018-02-08T02:25:39.000Z,27
2018-02-08T02:26:39.000Z,27
2018-02-08T02:28:39.000Z,27
2018-02-08T02:29:39.000Z,27
2018-02-08T02:30:39.000Z,27
2018-02-08T02:32:39.000Z,26.9
2018-02-08T02:33:39.000Z,26.9
2018-02-08T02:34:39.000Z,26.9
2018-02-08T02:36:39.000Z,27
2018-02-08T02:37:39.000Z,27
2018-02-08T02:39:39.000Z,27
2018-02-08T02:41:39.000Z,27
2018-02-08T02:42:39.000Z,26.9
2018-02-08T02:43:39.000Z,27
2018-02-08T02:45:39.000Z,27
2018-02-08T02:47:39.000Z,27
2018-02-08T02:49:39.000Z,26.9
2018-02-08T02:51:39.000Z,26.8
2018-02-08T02:52:39.000Z,26.8
2018-02-08T02:53:39.000Z,26.8
2018-02-08T02:54:39.000Z,26.9
2018-02-08T02:55:39.000Z,26.9
2018-02-08T02:57:39.000Z,27
2018-02-08T02:58:39.000Z,27
2018-02-08T03:00:39.000Z,27
2018-02-08T03:01:39.000Z,27
2018-02-08T03:03:39.000Z,26.9
2018-02-08T03:05:39.000Z,26.9
2018-02-08T03:07:39.000Z,26.9
2018-02-08T03:08:39.000Z,26.9
2018-02-08T03:10:39.000Z,27
2018-02-08T03:12:39.000Z,26.9
2018-02-08T03:14:39.000Z,26.9
2018-02-08T03:16:39.000Z,26.8
2018-02-08T03:18:24.000Z,26.8
2018-02-08T03:19:39.000Z,26.8
2018-02-08T03:21:39.000Z,26.7
2018-02-08T03:23:39.000Z,26.6
2018-02-08T03:25:39.000Z,26.6
2018-02-08T03:27:39.000Z,26.6
2018-02-08T03:29:39.000Z,26.6
2018-02-08T03:31:39.000Z,26.7
2018-02-08T03:33:39.000Z,26.7
2018-02-08T03:35:39.000Z,26.7
2018-02-08T03:36:39.000Z,26.6
2018-02-08T03:37:39.000Z,26.7
2018-02-08T03:39:39.000Z,26.8
2018-02-08T03:41:39.000Z,26.8
2018-02-08T03:43:39.000Z,26.8
2018-02-08T03:45:39.000Z,26.8
2018-02-08T03:46:39.000Z,26.8
2018-02-08T03:47:39.000Z,26.8
2018-02-08T03:49:39.000Z,26.9
2018-02-08T03:51:39.000Z,26.8
2018-02-08T03:52:39.000Z,26.8
2018-02-08T03:53:39.000Z,26.8
2018-02-08T03:55:24.000Z,26.8
2018-02-08T03:56:39.000Z,26.8
2018-02-08T03:58:39.000Z,26.8
2018-02-08T04:00:39.000Z,26.7
2018-02-08T04:01:39.000Z,26.7
2018-02-08T04:03:24.000Z,26.8
2018-02-08T04:04:39.000Z,26.7
2018-02-08T04:05:39.000Z,26.8
2018-02-08T04:06:39.000Z,26.8
2018-02-08T04:08:39.000Z,26.8
2018-02-08T04:09:39.000Z,26.8
2018-02-08T04:11:39.000Z,26.9
2018-02-08T04:12:39.000Z,26.9
2018-02-08T04:13:39.000Z,26.9
2018-02-08T04:15:39.000Z,26.9
2018-02-08T04:16:39.000Z,26.9
2018-02-08T04:18:39.000Z,26.9
2018-02-08T04:20:39.000Z,26.9
2018-02-08T04:21:39.000Z,26.9
2018-02-08T04:23:24.000Z,26.9
2018-02-08T04:24:39.000Z,26.8
2018-02-08T04:26:39.000Z,26.8
2018-02-08T04:27:39.000Z,26.8
2018-02-08T04:29:39.000Z,26.9
2018-02-08T04:31:39.000Z,26.8
2018-02-08T04:32:39.000Z,26.8
2018-02-08T04:33:39.000Z,26.8
2018-02-08T04:35:39.000Z,26.9
2018-02-08T04:37:39.000Z,26.8
2018-02-08T04:38:39.000Z,26.8
2018-02-08T04:40:24.000Z,26.8
2018-02-08T04:41:39.000Z,26.8
2018-02-08T04:43:39.000Z,26.8
2018-02-08T04:44:39.000Z,26.8
2018-02-08T04:45:39.000Z,26.8
2018-02-08T04:47:39.000Z,26.9
2018-02-08T04:48:39.000Z,26.9
2018-02-08T04:49:39.000Z,27
2018-02-08T04:50:39.000Z,27
2018-02-08T04:51:39.000Z,27.1
2018-02-08T04:52:39.000Z,27.1
2018-02-08T04:53:39.000Z,27.1
2018-02-08T04:54:39.000Z,27.2
2018-02-08T04:55:39.000Z,27.2
2018-02-08T04:57:39.000Z,27.2
2018-02-08T04:59:39.000Z,27.1
2018-02-08T05:01:39.000Z,27
2018-02-08T05:03:39.000Z,26.9
2018-02-08T05:05:39.000Z,26.8
2018-02-08T05:07:39.000Z,26.7
2018-02-08T05:09:39.000Z,26.6
2018-02-08T05:11:39.000Z,26.6
2018-02-08T05:13:39.000Z,26.6
2018-02-08T05:15:39.000Z,26.6
2018-02-08T05:16:39.000Z,26.6
2018-02-08T05:18:39.000Z,26.7
2018-02-08T05:19:39.000Z,26.7
2018-02-08T05:21:39.000Z,26.7
2018-02-08T05:22:39.000Z,26.7
2018-02-08T05:24:38.000Z,26.7
2018-02-08T05:26:38.000Z,26.6
2018-02-08T05:27:38.000Z,26.6
2018-02-08T05:29:38.000Z,26.6
2018-02-08T05:31:38.000Z,26.6
2018-02-08T05:32:38.000Z,26.6
2018-02-08T05:33:38.000Z,26.7
2018-02-08T05:35:38.000Z,26.7
2018-02-08T05:37:38.000Z,26.7
2018-02-08T05:39:38.000Z,26.6
2018-02-08T05:41:38.000Z,26.5
2018-02-08T05:42:38.000Z,26.5
2018-02-08T05:44:38.000Z,26.5
2018-02-08T05:46:38.000Z,26.5
2018-02-08T05:48:38.000Z,26.6
2018-02-08T05:49:38.000Z,26.6
2018-02-08T05:50:38.000Z,26.7
2018-02-08T05:52:23.000Z,26.8
2018-02-08T05:53:38.000Z,26.7
2018-02-08T05:55:38.000Z,26.7
2018-02-08T05:56:38.000Z,26.7
2018-02-08T05:58:38.000Z,26.8
2018-02-08T05:59:38.000Z,26.8
2018-02-08T06:01:38.000Z,26.9
2018-02-08T06:02:38.000Z,26.9
2018-02-08T06:04:38.000Z,26.9
2018-02-08T06:05:38.000Z,27
2018-02-08T06:07:38.000Z,27
2018-02-08T06:09:38.000Z,27
2018-02-08T06:10:38.000Z,27
2018-02-08T06:12:38.000Z,27.1
2018-02-08T06:13:38.000Z,27.1
2018-02-08T06:15:38.000Z,27.1
2018-02-08T06:16:38.000Z,27.1
2018-02-08T06:18:38.000Z,27.1
2018-02-08T06:20:38.000Z,27
2018-02-08T06:21:38.000Z,27
2018-02-08T06:22:38.000Z,27
2018-02-08T06:24:38.000Z,27
2018-02-08T06:25:38.000Z,27
2018-02-08T06:26:38.000Z,27.1
2018-02-08T06:28:39.000Z,27.1
2018-02-08T06:30:39.000Z,27.1
2018-02-08T06:31:39.000Z,27.2
2018-02-08T06:33:39.000Z,27.3
2018-02-08T06:35:39.000Z,27.3
2018-02-08T06:36:39.000Z,27.3
2018-02-08T06:38:39.000Z,27.3
2018-02-08T06:40:24.000Z,27.3
2018-02-08T06:41:39.000Z,27.3
2018-02-08T06:43:39.000Z,27.2
2018-02-08T06:44:39.000Z,27.3
2018-02-08T06:45:39.000Z,27.3
2018-02-08T06:47:39.000Z,27.5
2018-02-08T06:49:24.000Z,27.5
2018-02-08T06:50:39.000Z,27.5
2018-02-08T06:52:39.000Z,27.5
2018-02-08T06:54:39.000Z,27.4
2018-02-08T06:55:39.000Z,27.5
2018-02-08T06:56:39.000Z,27.5
2018-02-08T06:57:39.000Z,27.5
2018-02-08T06:59:24.000Z,27.6
2018-02-08T07:00:39.000Z,27.6
2018-02-08T07:01:39.000Z,27.6
2018-02-08T07:02:39.000Z,27.7
2018-02-08T07:04:39.000Z,27.8
2018-02-08T07:05:39.000Z,27.8
2018-02-08T07:07:39.000Z,27.8
2018-02-08T07:08:39.000Z,27.4
2018-02-08T07:10:39.000Z,25.8
2018-02-08T07:11:39.000Z,25.1
2018-02-08T07:12:39.000Z,24.9
2018-02-08T07:13:39.000Z,25
2018-02-08T07:14:39.000Z,25.1
2018-02-08T07:16:39.000Z,25.5
2018-02-08T07:17:39.000Z,25.7
2018-02-08T07:19:39.000Z,26
2018-02-08T07:20:39.000Z,26.1
2018-02-08T07:22:39.000Z,26.3
2018-02-08T07:23:39.000Z,26.4
2018-02-08T07:25:39.000Z,26.6
2018-02-08T07:26:39.000Z,26.6
2018-02-08T07:28:39.000Z,26.8
2018-02-08T07:29:39.000Z,26.9
2018-02-08T07:31:39.000Z,27.1
2018-02-08T07:32:39.000Z,27.1
2018-02-08T07:33:39.000Z,27.2
2018-02-08T07:35:39.000Z,27.4
2018-02-08T07:37:39.000Z,27.5
2018-02-08T07:39:39.000Z,27.6
2018-02-08T07:41:39.000Z,27.6
2018-02-08T07:42:39.000Z,27.7
2018-02-08T07:43:39.000Z,27.8
2018-02-08T07:45:39.000Z,27.9
2018-02-08T07:46:39.000Z,28
2018-02-08T07:48:39.000Z,28.1
2018-02-08T07:50:39.000Z,28.1
2018-02-08T07:51:39.000Z,28.1
2018-02-08T07:53:39.000Z,28.2
2018-02-08T07:55:39.000Z,28.2
2018-02-08T07:57:39.000Z,28.3
2018-02-08T07:58:39.000Z,28.3
2018-02-08T08:00:39.000Z,28.4
2018-02-08T08:02:39.000Z,28.5
2018-02-08T08:04:39.000Z,28.5
2018-02-08T08:06:39.000Z,28.6
2018-02-08T08:08:39.000Z,28.6
2018-02-08T08:10:39.000Z,28.6
2018-02-08T08:11:39.000Z,28.7
2018-02-08T08:12:39.000Z,28.7
2018-02-08T08:14:39.000Z,28.8
2018-02-08T08:15:39.000Z,28.9
2018-02-08T08:16:39.000Z,28.9
2018-02-08T08:17:39.000Z,29
2018-02-08T08:18:39.000Z,29.1
2018-02-08T08:20:39.000Z,29.2
2018-02-08T08:22:39.000Z,29.3
2018-02-08T08:23:39.000Z,29.4
2018-02-08T08:25:39.000Z,29.4
2018-02-08T08:27:39.000Z,29.4
2018-02-08T08:29:24.000Z,29.4
2018-02-08T08:30:39.000Z,29.3
2018-02-08T08:32:39.000Z,29.3
2018-02-08T08:33:39.000Z,29.3
2018-02-08T08:35:39.000Z,29.4
2018-02-08T08:36:39.000Z,29.4
2018-02-08T08:37:39.000Z,29.5
2018-02-08T08:39:39.000Z,29.5
2018-02-08T08:41:39.000Z,29.4
2018-02-08T08:43:39.000Z,29.5
2018-02-08T08:45:39.000Z,29.5
2018-02-08T08:47:39.000Z,29.5
2018-02-08T08:48:39.000Z,29.6
2018-02-08T08:50:39.000Z,29.7
2018-02-08T08:52:39.000Z,29.9
2018-02-08T08:54:39.000Z,29.9
2018-02-08T08:56:39.000Z,30
2018-02-08T08:58:39.000Z,30
2018-02-08T08:59:39.000Z,30
2018-02-08T09:01:39.000Z,30.1
2018-02-08T09:03:39.000Z,30.2
2018-02-08T09:05:39.000Z,30.3
2018-02-08T09:06:39.000Z,30.3
2018-02-08T09:08:39.000Z,30.4
2018-02-08T09:09:39.000Z,30.5
2018-02-08T09:10:39.000Z,30.4
2018-02-08T09:12:39.000Z,30.2
2018-02-08T09:14:39.000Z,30
2018-02-08T09:15:39.000Z,30
2018-02-08T09:16:39.000Z,30
2018-02-08T09:18:39.000Z,29.9
2018-02-08T09:20:39.000Z,29.9
2018-02-08T09:22:39.000Z,29.8
2018-02-08T09:24:39.000Z,29.7
2018-02-08T09:25:39.000Z,29.7
2018-02-08T09:27:39.000Z,29.7
2018-02-08T09:29:39.000Z,29.7
2018-02-08T09:31:39.000Z,29.7
2018-02-08T09:32:39.000Z,29.7
2018-02-08T09:34:39.000Z,29.7
2018-02-08T09:36:23.000Z,29.7
2018-02-08T09:37:39.000Z,29.7
2018-02-08T09:39:39.000Z,29.6
2018-02-08T09:41:39.000Z,29.6
2018-02-08T09:43:39.000Z,29.5
2018-02-08T09:44:39.000Z,29.5
2018-02-08T09:46:39.000Z,29.5
2018-02-08T09:47:39.000Z,29.5
2018-02-08T09:49:39.000Z,29.5
2018-02-08T09:51:39.000Z,29.5
2018-02-08T09:53:39.000Z,29.5
2018-02-08T09:54:39.000Z,29.5
2018-02-08T09:56:39.000Z,29.6
2018-02-08T09:57:39.000Z,29.6
2018-02-08T09:59:39.000Z,29.6
2018-02-08T10:00:39.000Z,29.7
2018-02-08T10:01:39.000Z,29.7
2018-02-08T10:02:39.000Z,29.8
2018-02-08T10:03:39.000Z,29.9
2018-02-08T10:05:39.000Z,29.8
2018-02-08T10:07:39.000Z,29.8
2018-02-08T10:09:38.000Z,29.8
2018-02-08T10:10:39.000Z,29.8
2018-02-08T10:12:39.000Z,29.9
2018-02-08T10:13:39.000Z,29.9
2018-02-08T10:15:39.000Z,29.9
2018-02-08T10:17:39.000Z,29.9
2018-02-08T10:18:39.000Z,29.9
2018-02-08T10:20:39.000Z,29.9
2018-02-08T10:21:39.000Z,29.9
2018-02-08T10:23:23.000Z,29.9
2018-02-08T10:24:39.000Z,29.9
2018-02-08T10:26:23.000Z,29.9
2018-02-08T10:27:39.000Z,29.8
2018-02-08T10:29:39.000Z,29.8
2018-02-08T10:30:39.000Z,29.8
2018-02-08T10:32:39.000Z,29.8
2018-02-08T10:33:39.000Z,29.9
2018-02-08T10:35:39.000Z,29.9
2018-02-08T10:36:39.000Z,29.9
2018-02-08T10:38:39.000Z,30
2018-02-08T10:39:39.000Z,30
2018-02-08T10:41:39.000Z,30
2018-02-08T10:42:39.000Z,30
2018-02-08T10:44:39.000Z,30.1
2018-02-08T10:45:39.000Z,30.1
2018-02-08T10:47:24.000Z,30.2
2018-02-08T10:48:39.000Z,30.2
2018-02-08T10:50:39.000Z,30.2
2018-02-08T10:52:24.000Z,30.1
2018-02-08T10:53:39.000Z,30
2018-02-08T10:54:39.000Z,30
2018-02-08T10:55:39.000Z,30
2018-02-08T10:57:24.000Z,30
2018-02-08T10:58:39.000Z,30
2018-02-08T11:00:39.000Z,29.9
2018-02-08T11:02:39.000Z,29.9
2018-02-08T11:03:39.000Z,29.9
2018-02-08T11:04:39.000Z,29.9
2018-02-08T11:06:39.000Z,30
2018-02-08T11:07:39.000Z,30
2018-02-08T11:09:39.000Z,29.9
2018-02-08T11:11:39.000Z,29.9
2018-02-08T11:13:39.000Z,29.8
2018-02-08T11:14:39.000Z,29.8
2018-02-08T11:16:39.000Z,29.8
2018-02-08T11:18:39.000Z,29.8
2018-02-08T11:19:39.000Z,29.8
2018-02-08T11:20:39.000Z,29.9
2018-02-08T11:21:39.000Z,29.9
2018-02-08T11:22:39.000Z,29.9
2018-02-08T11:24:39.000Z,30
2018-02-08T11:25:39.000Z,30
2018-02-08T11:26:39.000Z,30
2018-02-08T11:28:39.000Z,30.1
2018-02-08T11:30:39.000Z,30.1
2018-02-08T11:32:39.000Z,30
2018-02-08T11:33:39.000Z,30
2018-02-08T11:35:39.000Z,29.9
2018-02-08T11:36:39.000Z,29.9
2018-02-08T11:38:39.000Z,30
2018-02-08T11:39:39.000Z,30
2018-02-08T11:41:39.000Z,30.1
2018-02-08T11:43:39.000Z,30.1
2018-02-08T11:45:39.000Z,30.1
2018-02-08T11:46:39.000Z,30.1
2018-02-08T11:48:39.000Z,30.1
2018-02-08T11:49:39.000Z,30.1
2018-02-08T11:50:39.000Z,30.2
2018-02-08T11:52:39.000Z,30.2
2018-02-08T11:54:24.000Z,30.2
2018-02-08T11:55:39.000Z,30.1
2018-02-08T11:56:39.000Z,30.2
2018-02-08T11:57:39.000Z,30.2
2018-02-08T11:58:39.000Z,30.2
2018-02-08T12:00:24.000Z,30.3
2018-02-08T12:01:39.000Z,30.3
2018-02-08T12:03:39.000Z,30.3
2018-02-08T12:05:39.000Z,30.2
2018-02-08T12:06:39.000Z,30.2
2018-02-08T12:07:39.000Z,30.2
2018-02-08T12:09:39.000Z,30.3
2018-02-08T12:10:39.000Z,30.3
2018-02-08T12:12:39.000Z,30.4
2018-02-08T12:13:39.000Z,30.4
2018-02-08T12:15:39.000Z,30.5
2018-02-08T12:17:39.000Z,30.4
2018-02-08T12:19:39.000Z,30.4
2018-02-08T12:21:39.000Z,30.3
2018-02-08T12:22:39.000Z,30.3
2018-02-08T12:23:39.000Z,30.4
2018-02-08T12:25:39.000Z,30.4
2018-02-08T12:26:39.000Z,30.5
2018-02-08T12:28:39.000Z,30.5
2018-02-08T12:30:39.000Z,30.5
2018-02-08T12:31:39.000Z,30.5
2018-02-08T12:33:24.000Z,30.5
2018-02-08T12:34:39.000Z,30.5
2018-02-08T12:36:39.000Z,30.3
2018-02-08T12:37:39.000Z,30
2018-02-08T12:38:39.000Z,29.8
2018-02-08T12:40:39.000Z,29.1
2018-02-08T12:41:39.000Z,28.7
2018-02-08T12:42:39.000Z,28.3
2018-02-08T12:44:39.000Z,27.8
2018-02-08T12:46:39.000Z,27.4
2018-02-08T12:48:24.000Z,27
2018-02-08T12:49:39.000Z,26.6
2018-02-08T12:50:39.000Z,26.4
2018-02-08T12:51:39.000Z,26.3
2018-02-08T12:53:39.000Z,26.3
2018-02-08T12:55:39.000Z,26.1
2018-02-08T12:57:39.000Z,25.9
2018-02-08T12:59:39.000Z,25.6
2018-02-08T13:00:39.000Z,25.5
2018-02-08T13:01:39.000Z,25.5
2018-02-08T13:03:39.000Z,25.4
2018-02-08T13:05:39.000Z,25.2
2018-02-08T13:07:39.000Z,24.8
2018-02-08T13:09:39.000Z,24.4
2018-02-08T13:10:39.000Z,24.3
2018-02-08T13:12:39.000Z,24.4
2018-02-08T13:14:39.000Z,24.6
2018-02-08T13:16:39.000Z,25
2018-02-08T13:18:39.000Z,25.4
2018-02-08T13:19:39.000Z,25.6
2018-02-08T13:21:39.000Z,25.9
2018-02-08T13:22:39.000Z,26.1
2018-02-08T13:24:39.000Z,26.4
2018-02-08T13:26:39.000Z,26.6
2018-02-08T13:28:39.000Z,26.8
2018-02-08T13:29:39.000Z,26.9
2018-02-08T13:31:39.000Z,27.1
2018-02-08T13:33:39.000Z,27.3
2018-02-08T13:35:24.000Z,27.4
2018-02-08T13:36:39.000Z,27.5
2018-02-08T13:37:39.000Z,27.6
2018-02-08T13:39:39.000Z,27.7
2018-02-08T13:41:39.000Z,27.9
2018-02-08T13:43:39.000Z,28
2018-02-08T13:44:39.000Z,28
2018-02-08T13:46:39.000Z,28.1
2018-02-08T13:47:39.000Z,28.2
2018-02-08T13:49:24.000Z,28.3
2018-02-08T13:50:39.000Z,28.3
2018-02-08T13:52:39.000Z,28.4
2018-02-08T13:53:39.000Z,28.4
2018-02-08T13:55:39.000Z,28.5
2018-02-08T13:56:39.000Z,28.5
2018-02-08T13:57:39.000Z,28.5
2018-02-08T13:59:39.000Z,28.5
2018-02-08T14:01:39.000Z,28.6
2018-02-08T14:02:39.000Z,28.6
2018-02-08T14:03:39.000Z,28.7
2018-02-08T14:04:39.000Z,28.7
2018-02-08T14:06:39.000Z,28.9
2018-02-08T14:08:39.000Z,29
2018-02-08T14:10:39.000Z,29.2
2018-02-08T14:12:39.000Z,29.3
2018-02-08T14:13:39.000Z,29.4
2018-02-08T14:15:39.000Z,29.6
2018-02-08T14:17:39.000Z,29.8
2018-02-08T14:19:39.000Z,29.9
2018-02-08T14:21:24.000Z,30
2018-02-08T14:22:39.000Z,30.1
2018-02-08T14:24:39.000Z,30.3
2018-02-08T14:26:39.000Z,30.4
2018-02-08T14:28:39.000Z,30.3
2018-02-08T14:30:24.000Z,30.2
2018-02-08T14:31:39.000Z,30.2
2018-02-08T14:32:39.000Z,30.5
2018-02-08T14:33:39.000Z,30.8
2018-02-08T14:35:24.000Z,31.6
2018-02-08T14:36:39.000Z,32
2018-02-08T14:37:39.000Z,32.3
2018-02-08T14:38:39.000Z,32.6
2018-02-08T14:40:24.000Z,33
2018-02-08T14:41:39.000Z,33
2018-02-08T14:43:39.000Z,32.8
2018-02-08T14:44:39.000Z,32.5
2018-02-08T14:46:24.000Z,32
2018-02-08T14:47:39.000Z,31.6
2018-02-08T14:49:39.000Z,31
2018-02-08T14:51:39.000Z,30.7
2018-02-08T14:53:39.000Z,30.4
2018-02-08T14:55:39.000Z,30.2
2018-02-08T14:57:39.000Z,30
2018-02-08T14:59:39.000Z,29.9
2018-02-08T15:00:39.000Z,29.9
2018-02-08T15:02:24.000Z,29.9
2018-02-08T15:03:39.000Z,29.8
2018-02-08T15:04:39.000Z,29.8
2018-02-08T15:06:39.000Z,29.8
2018-02-08T15:08:39.000Z,29.7
2018-02-08T15:09:39.000Z,29.6
2018-02-08T15:11:39.000Z,29.5
2018-02-08T15:12:39.000Z,29.5
2018-02-08T15:13:39.000Z,29.5
2018-02-08T15:14:39.000Z,29.5
2018-02-08T15:16:39.000Z,29.5
2018-02-08T15:18:39.000Z,29.4
2018-02-08T15:20:39.000Z,29.3
2018-02-08T15:21:39.000Z,29.3
2018-02-08T15:22:39.000Z,29.3
2018-02-08T15:23:39.000Z,29.3
2018-02-08T15:25:39.000Z,29.4
2018-02-08T15:27:39.000Z,29.4
2018-02-08T15:28:39.000Z,29.4
2018-02-08T15:30:39.000Z,29.4
2018-02-08T15:32:24.000Z,29.4
2018-02-08T15:33:39.000Z,29.4
2018-02-08T15:34:39.000Z,29.4
2018-02-08T15:35:39.000Z,29.4
2018-02-08T15:37:39.000Z,29.4
2018-02-08T15:39:39.000Z,29.4
2018-02-08T15:41:39.000Z,29.3
2018-02-08T15:43:39.000Z,29.2
2018-02-08T15:44:39.000Z,29.2
2018-02-08T15:45:39.000Z,29.3
2018-02-08T15:47:39.000Z,29.3
2018-02-08T15:49:39.000Z,29.3
2018-02-08T15:50:39.000Z,29.3
2018-02-08T15:52:39.000Z,29.4
2018-02-08T15:53:39.000Z,29.4
2018-02-08T15:54:39.000Z,29.4
2018-02-08T15:56:39.000Z,29.4
2018-02-08T15:57:39.000Z,29.4
2018-02-08T15:59:24.000Z,29.4
2018-02-08T16:00:39.000Z,29.3
2018-02-08T16:01:39.000Z,29.3
2018-02-08T16:02:39.000Z,29.3
2018-02-08T16:04:39.000Z,29.3
2018-02-08T16:06:39.000Z,29.2
2018-02-08T16:07:39.000Z,29.2
2018-02-08T16:09:39.000Z,29.2
2018-02-08T16:10:39.000Z,29.2
2018-02-08T16:12:39.000Z,29.2
2018-02-08T16:13:39.000Z,29.3
2018-02-08T16:14:39.000Z,29.3
2018-02-08T16:15:39.000Z,29.4
2018-02-08T16:17:39.000Z,29.4
2018-02-08T16:18:39.000Z,29.4
2018-02-08T16:20:39.000Z,29.5
2018-02-08T16:21:39.000Z,29.5
2018-02-08T16:22:39.000Z,29.5
2018-02-08T16:24:39.000Z,29.5
2018-02-08T16:26:39.000Z,29.4
2018-02-08T16:27:39.000Z,29.3
2018-02-08T16:28:39.000Z,29.4
2018-02-08T16:30:39.000Z,29.4
2018-02-08T16:31:39.000Z,29.5
2018-02-08T16:33:39.000Z,29.4
2018-02-08T16:35:39.000Z,29.4
2018-02-08T16:37:39.000Z,29.3
2018-02-08T16:39:39.000Z,29.3
2018-02-08T16:41:24.000Z,29.3
2018-02-08T16:42:39.000Z,29.3
2018-02-08T16:44:39.000Z,29.3
2018-02-08T16:46:39.000Z,29.2
2018-02-08T16:47:39.000Z,29.3
2018-02-08T16:48:39.000Z,29.3
2018-02-08T16:50:39.000Z,29.4
2018-02-08T16:52:39.000Z,29.4
2018-02-08T16:54:39.000Z,29.4
2018-02-08T16:55:39.000Z,29.4
2018-02-08T16:57:39.000Z,29.4
2018-02-08T16:58:39.000Z,29.4
2018-02-08T16:59:39.000Z,29.4
2018-02-08T17:01:39.000Z,29.5
2018-02-08T17:03:24.000Z,29.5
2018-02-08T17:04:39.000Z,29.4
2018-02-08T17:06:24.000Z,29.4
2018-02-08T17:07:39.000Z,29.4
2018-02-08T17:08:39.000Z,29.4
2018-02-08T17:10:39.000Z,29.4
2018-02-08T17:11:39.000Z,29.4
2018-02-08T17:12:39.000Z,29.5
2018-02-08T17:13:39.000Z,29.5
2018-02-08T17:15:39.000Z,29.5
2018-02-08T17:17:39.000Z,29.5
2018-02-08T17:18:39.000Z,29.4
2018-02-08T17:19:39.000Z,29.5
2018-02-08T17:21:39.000Z,29.4
2018-02-08T17:23:39.000Z,29.4
2018-02-08T17:24:39.000Z,29.4
2018-02-08T17:25:39.000Z,29.4
2018-02-08T17:26:39.000Z,29.5
2018-02-08T17:27:39.000Z,29.5
2018-02-08T17:29:39.000Z,29.5
2018-02-08T17:30:39.000Z,29.5
2018-02-08T17:32:39.000Z,29.5
2018-02-08T17:33:39.000Z,29.5
2018-02-08T17:34:39.000Z,29.5
2018-02-08T17:35:39.000Z,29.5
2018-02-08T17:37:39.000Z,29.5
2018-02-08T17:39:39.000Z,29.5
2018-02-08T17:40:39.000Z,29.5
2018-02-08T17:41:39.000Z,29.5
2018-02-08T17:43:39.000Z,29.4
2018-02-08T17:45:24.000Z,29.4
2018-02-08T17:46:39.000Z,29.3
2018-02-08T17:47:39.000Z,29.3
2018-02-08T17:48:39.000Z,29.4
2018-02-08T17:49:39.000Z,29.4
2018-02-08T17:51:24.000Z,29.5
2018-02-08T17:52:39.000Z,29.4
2018-02-08T17:53:39.000Z,29.5
2018-02-08T17:55:39.000Z,29.5
2018-02-08T17:57:39.000Z,29.5
2018-02-08T17:58:39.000Z,29.5
2018-02-08T17:59:39.000Z,29.5
2018-02-08T18:01:39.000Z,29.5
2018-02-08T18:03:39.000Z,29.4
2018-02-08T18:04:39.000Z,29.4
2018-02-08T18:06:39.000Z,29.4
2018-02-08T18:07:39.000Z,29.4
2018-02-08T18:08:39.000Z,29.4
2018-02-08T18:10:39.000Z,29.3
2018-02-08T18:12:39.000Z,29.2
2018-02-08T18:13:39.000Z,29.2
2018-02-08T18:15:39.000Z,29.2
2018-02-08T18:17:39.000Z,29.2
2018-02-08T18:19:39.000Z,29.1
2018-02-08T18:20:39.000Z,29.1
2018-02-08T18:22:39.000Z,29.1
2018-02-08T18:23:39.000Z,29.2
2018-02-08T18:24:39.000Z,29.2
2018-02-08T18:26:39.000Z,29.3
2018-02-08T18:28:23.000Z,29.3
2018-02-08T18:29:39.000Z,29.3
2018-02-08T18:31:39.000Z,29.2
2018-02-08T18:32:39.000Z,29.2
2018-02-08T18:34:23.000Z,29.3
2018-02-08T18:35:39.000Z,29.2
2018-02-08T18:36:39.000Z,29.2
2018-02-08T18:38:39.000Z,29.2
2018-02-08T18:39:39.000Z,29.2
2018-02-08T18:40:39.000Z,29.3
2018-02-08T18:42:39.000Z,29.3
2018-02-08T18:43:39.000Z,29.2
2018-02-08T18:45:39.000Z,29.2
2018-02-08T18:46:39.000Z,29.2
2018-02-08T18:48:39.000Z,29.2
2018-02-08T18:49:39.000Z,29.2
2018-02-08T18:51:23.000Z,29.3
2018-02-08T18:52:39.000Z,29.2
2018-02-08T18:54:39.000Z,29.1
2018-02-08T18:55:39.000Z,29.1
2018-02-08T18:57:39.000Z,29.1
2018-02-08T18:59:39.000Z,29.1
2018-02-08T19:01:39.000Z,29
2018-02-08T19:03:39.000Z,29
2018-02-08T19:05:39.000Z,29
2018-02-08T19:06:39.000Z,29
2018-02-08T19:07:39.000Z,29
2018-02-08T19:09:39.000Z,29.1
2018-02-08T19:11:39.000Z,29.1
2018-02-08T19:13:39.000Z,29
2018-02-08T19:14:39.000Z,29
2018-02-08T19:15:39.000Z,29.1
2018-02-08T19:17:39.000Z,29.2
2018-02-08T19:19:39.000Z,29.1
2018-02-08T19:20:39.000Z,29.1
2018-02-08T19:22:39.000Z,29.1
2018-02-08T19:24:39.000Z,29
2018-02-08T19:26:39.000Z,29
2018-02-08T19:28:39.000Z,28.9
2018-02-08T19:30:39.000Z,28.9
2018-02-08T19:32:39.000Z,28.9
2018-02-08T19:34:39.000Z,28.9
2018-02-08T19:36:39.000Z,28.9
2018-02-08T19:37:39.000Z,28.9
2018-02-08T19:39:39.000Z,28.9
2018-02-08T19:40:39.000Z,29
2018-02-08T19:42:39.000Z,29
2018-02-08T19:43:39.000Z,28.9
2018-02-08T19:45:39.000Z,28.9
2018-02-08T19:46:39.000Z,28.9
2018-02-08T19:47:39.000Z,28.9
2018-02-08T19:49:39.000Z,28.9
2018-02-08T19:50:39.000Z,28.9
2018-02-08T19:51:39.000Z,29
2018-02-08T19:52:39.000Z,29
2018-02-08T19:53:39.000Z,29
2018-02-08T19:54:39.000Z,29
2018-02-08T19:56:39.000Z,29
2018-02-08T19:58:39.000Z,29
2018-02-08T19:59:39.000Z,28.9
2018-02-08T20:00:39.000Z,29
2018-02-08T20:02:39.000Z,28.9
2018-02-08T20:03:39.000Z,28.9
2018-02-08T20:05:39.000Z,28.8
2018-02-08T20:07:39.000Z,28.7
2018-02-08T20:08:39.000Z,28.7
2018-02-08T20:10:39.000Z,28.6
2018-02-08T20:11:39.000Z,28.7
2018-02-08T20:13:39.000Z,28.6
2018-02-08T20:14:39.000Z,28.6
2018-02-08T20:15:39.000Z,28.7
2018-02-08T20:17:39.000Z,28.7
2018-02-08T20:19:39.000Z,28.7
2018-02-08T20:20:39.000Z,28.7
2018-02-08T20:22:39.000Z,28.7
2018-02-08T20:24:39.000Z,28.6
2018-02-08T20:25:39.000Z,28.6
2018-02-08T20:26:39.000Z,28.7
2018-02-08T20:28:39.000Z,28.7
2018-02-08T20:30:39.000Z,28.6
2018-02-08T20:32:39.000Z,28.5
2018-02-08T20:34:39.000Z,28.4
2018-02-08T20:36:39.000Z,28.4
2018-02-08T20:37:39.000Z,28.4
2018-02-08T20:38:39.000Z,28.4
2018-02-08T20:40:39.000Z,28.5